createdAt,value
2022-11-23T00:01:22.444Z,1.90
2022-11-23T00:03:50.586Z,2.10
2022-11-23T00:06:18.250Z,1.77
2022-11-23T00:08:45.773Z,2.00
2022-11-23T00:11:13.140Z,1.90
2022-11-23T00:13:40.861Z,1.70
2022-11-23T00:16:08.182Z,2.30
2022-11-23T00:18:35.492Z,1.70
2022-11-23T00:21:13.254Z,2.10
2022-11-23T00:23:40.416Z,1.75
2022-11-23T00:26:07.938Z,1.73
2022-11-23T00:28:38.749Z,1.48
2022-11-23T00:31:09.342Z,1.50
2022-11-23T00:33:36.916Z,1.60
2022-11-23T00:36:14.152Z,1.70
2022-11-23T00:38:41.897Z,1.40
2022-11-23T00:41:13.174Z,1.83
2022-11-23T00:43:40.236Z,1.60
2022-11-23T00:46:09.292Z,2.00
2022-11-23T00:48:36.640Z,1.60
2022-11-23T00:51:05.430Z,1.67
2022-11-23T00:53:32.625Z,1.42
2022-11-23T00:55:59.926Z,1.83
2022-11-23T00:58:27.200Z,1.52
2022-11-23T01:01:03.357Z,1.73
2022-11-23T01:03:30.970Z,1.35
2022-11-23T01:06:08.941Z,1.42
2022-11-23T01:08:36.473Z,1.70
2022-11-23T01:11:04.638Z,1.65
2022-11-23T01:13:31.915Z,1.75
2022-11-23T01:15:59.137Z,1.50
2022-11-23T01:18:26.554Z,1.52
2022-11-23T01:20:53.878Z,1.50
2022-11-23T01:23:21.058Z,1.40
2022-11-23T01:25:50.893Z,1.73
2022-11-23T01:28:20.203Z,1.13
2022-11-23T01:30:47.288Z,1.73
2022-11-23T01:33:14.407Z,1.65
2022-11-23T01:35:41.487Z,1.35
2022-11-23T01:38:10.597Z,1.27
2022-11-23T01:40:44.101Z,1.50
2022-11-23T01:43:17.885Z,1.30
2022-11-23T01:45:46.040Z,1.23
2022-11-23T01:48:18.527Z,1.27
2022-11-23T01:50:47.284Z,1.70
2022-11-23T01:53:14.413Z,1.33
2022-11-23T01:55:42.010Z,1.52
2022-11-23T01:58:13.635Z,1.38
2022-11-23T02:00:41.006Z,1.30
2022-11-23T02:03:08.151Z,1.52
2022-11-23T02:05:37.117Z,1.30
2022-11-23T02:10:32.259Z,1.10
2022-11-23T02:13:03.757Z,1.30
2022-11-23T02:15:30.992Z,1.55
2022-11-23T02:17:59.474Z,1.17
2022-11-23T02:20:27.021Z,1.63
2022-11-23T02:23:00.722Z,1.40
2022-11-23T02:25:46.179Z,1.30
2022-11-23T02:28:18.541Z,1.30
2022-11-23T02:30:48.129Z,1.50
2022-11-23T02:33:15.199Z,1.30
2022-11-23T02:35:52.257Z,1.30
2022-11-23T02:38:20.064Z,1.38
2022-11-23T02:40:47.246Z,1.00
2022-11-23T02:43:15.901Z,1.20
2022-11-23T02:45:59.805Z,1.25
2022-11-23T02:48:27.008Z,1.15
2022-11-23T02:50:54.173Z,1.50
2022-11-23T02:53:21.430Z,1.15
2022-11-23T02:55:48.547Z,1.45
2022-11-23T02:58:15.625Z,1.30
2022-11-23T03:00:42.897Z,1.38
2022-11-23T03:03:10.051Z,1.05
2022-11-23T03:05:37.170Z,1.20
2022-11-23T03:08:04.356Z,1.20
2022-11-23T03:10:31.456Z,1.00
2022-11-23T03:12:59.018Z,1.15
2022-11-23T03:15:26.104Z,0.95
2022-11-23T03:17:53.560Z,1.35
2022-11-23T03:20:20.696Z,1.02
2022-11-23T03:22:47.838Z,1.25
2022-11-23T03:25:16.474Z,1.02
2022-11-23T03:27:43.596Z,1.02
2022-11-23T03:30:11.092Z,1.20
2022-11-23T03:32:38.208Z,1.08
2022-11-23T03:35:05.551Z,1.63
2022-11-23T03:37:32.689Z,1.35
2022-11-23T03:39:59.776Z,1.25
2022-11-23T03:42:26.974Z,1.20
2022-11-23T03:44:54.059Z,1.33
2022-11-23T03:47:21.209Z,0.90
2022-11-23T03:49:48.453Z,1.10
2022-11-23T03:52:15.540Z,1.48
2022-11-23T03:54:42.612Z,1.10
2022-11-23T03:57:09.695Z,1.30
2022-11-23T03:59:36.874Z,0.93
2022-11-23T04:02:07.804Z,1.40
2022-11-23T04:04:35.372Z,1.23
2022-11-23T04:07:02.758Z,1.10
2022-11-23T04:09:30.357Z,1.30
2022-11-23T04:11:57.753Z,1.10
2022-11-23T04:14:24.815Z,0.95
2022-11-23T04:16:52.030Z,1.10
2022-11-23T04:19:19.262Z,1.30
2022-11-23T04:21:46.352Z,1.10
2022-11-23T04:24:13.437Z,1.20
2022-11-23T04:26:40.721Z,1.25
2022-11-23T04:29:07.792Z,1.15
2022-11-23T04:31:37.554Z,1.20
2022-11-23T04:34:04.689Z,0.98
2022-11-23T04:36:31.943Z,1.10
2022-11-23T04:38:59.037Z,1.13
2022-11-23T04:41:26.252Z,1.00
2022-11-23T04:43:53.339Z,1.23
2022-11-23T04:46:20.551Z,0.98
2022-11-23T04:48:48.160Z,1.35
2022-11-23T04:51:16.368Z,1.02
2022-11-23T04:53:43.676Z,1.42
2022-11-23T04:56:10.859Z,1.27
2022-11-23T04:58:38.124Z,1.13
2022-11-23T05:01:06.014Z,0.90
2022-11-23T05:03:36.169Z,1.20
2022-11-23T05:06:03.774Z,1.00
2022-11-23T05:08:31.232Z,1.05
2022-11-23T05:10:58.521Z,0.93
2022-11-23T05:13:25.839Z,1.00
2022-11-23T05:15:52.996Z,1.30
2022-11-23T05:18:20.096Z,0.82
2022-11-23T05:20:47.501Z,0.90
2022-11-23T05:23:14.582Z,1.20
2022-11-23T05:25:41.706Z,0.93
2022-11-23T05:28:30.545Z,1.10
2022-11-23T05:30:57.605Z,0.88
2022-11-23T05:33:24.669Z,0.85
2022-11-23T05:35:51.805Z,1.20
2022-11-23T05:38:18.988Z,1.00
2022-11-23T05:40:46.618Z,1.80
2022-11-23T05:43:14.088Z,1.35
2022-11-23T05:45:41.161Z,1.10
2022-11-23T05:48:08.273Z,1.10
2022-11-23T05:50:35.628Z,1.30
2022-11-23T05:53:02.700Z,0.98
2022-11-23T05:55:29.885Z,1.10
2022-11-23T05:57:57.146Z,1.08
2022-11-23T06:00:24.285Z,0.93
2022-11-23T06:02:52.359Z,0.90
2022-11-23T06:05:19.508Z,1.10
2022-11-23T06:07:46.774Z,1.30
2022-11-23T06:10:14.223Z,1.10
2022-11-23T06:12:41.396Z,0.88
2022-11-23T06:15:09.377Z,1.25
2022-11-23T06:17:36.858Z,0.95
2022-11-23T06:20:04.908Z,1.27
2022-11-23T06:22:32.023Z,1.10
2022-11-23T06:24:59.308Z,1.13
2022-11-23T06:27:26.386Z,0.90
2022-11-23T06:29:53.504Z,1.10
2022-11-23T06:32:20.750Z,1.33
2022-11-23T06:34:47.807Z,1.20
2022-11-23T06:37:14.984Z,0.90
2022-11-23T06:39:42.193Z,0.90
2022-11-23T06:42:38.402Z,1.10
2022-11-23T06:44:56.550Z,0.93
2022-11-23T06:47:26.369Z,1.00
2022-11-23T06:49:53.812Z,0.90
2022-11-23T06:52:21.023Z,1.17
2022-11-23T06:54:48.160Z,0.95
2022-11-23T06:57:15.288Z,0.70
2022-11-23T06:59:44.925Z,1.05
2022-11-23T07:02:12.861Z,1.20
2022-11-23T07:04:40.072Z,0.70
2022-11-23T07:07:10.317Z,0.82
2022-11-23T07:09:38.164Z,1.20
2022-11-23T07:12:05.362Z,1.00
2022-11-23T07:14:32.473Z,0.70
2022-11-23T07:16:59.608Z,1.13
2022-11-23T07:19:26.768Z,0.75
2022-11-23T07:21:54.256Z,0.90
2022-11-23T07:24:21.413Z,0.82
2022-11-23T07:26:48.562Z,1.10
2022-11-23T07:29:15.712Z,0.93
2022-11-23T07:31:42.842Z,0.80
2022-11-23T07:34:11.128Z,1.00
2022-11-23T07:36:38.317Z,0.90
2022-11-23T07:39:05.452Z,0.90
2022-11-23T07:41:32.569Z,1.10
2022-11-23T07:43:59.663Z,1.00
2022-11-23T07:46:26.817Z,0.80
2022-11-23T07:48:55.187Z,0.57
2022-11-23T07:51:22.359Z,0.90
2022-11-23T07:53:49.503Z,0.80
2022-11-23T07:56:16.581Z,0.63
2022-11-23T07:58:43.829Z,0.90
2022-11-23T08:01:11.744Z,1.00
2022-11-23T08:03:38.863Z,0.80
2022-11-23T08:06:10.249Z,0.77
2022-11-23T08:08:37.443Z,1.20
2022-11-23T08:11:05.684Z,0.80
2022-11-23T08:13:34.834Z,0.80
2022-11-23T08:16:02.544Z,0.68
2022-11-23T08:18:29.686Z,0.70
2022-11-23T08:21:00.408Z,1.27
2022-11-23T08:23:27.904Z,1.05
2022-11-23T08:25:55.046Z,0.90
2022-11-23T08:28:22.195Z,0.80
2022-11-23T08:30:49.815Z,0.75
2022-11-23T08:33:18.192Z,0.80
2022-11-23T08:35:45.459Z,0.82
2022-11-23T08:38:12.869Z,1.00
2022-11-23T08:40:41.234Z,0.70
2022-11-23T08:43:08.379Z,1.05
2022-11-23T08:45:35.781Z,0.70
2022-11-23T08:48:03.868Z,0.90
2022-11-23T08:50:31.299Z,0.98
2022-11-23T08:52:59.255Z,0.70
2022-11-23T08:55:26.860Z,0.60
2022-11-23T08:57:57.759Z,1.20
2022-11-23T09:00:25.230Z,0.80
2022-11-23T09:02:52.619Z,0.88
2022-11-23T09:05:20.017Z,0.80
2022-11-23T09:07:47.267Z,0.98
2022-11-23T09:10:18.363Z,0.70
2022-11-23T09:12:46.651Z,0.75
2022-11-23T09:15:13.738Z,0.75
2022-11-23T09:17:40.868Z,0.70
2022-11-23T09:20:08.384Z,0.93
2022-11-23T09:22:35.459Z,0.75
2022-11-23T09:25:02.879Z,0.70
2022-11-23T09:27:29.993Z,0.73
2022-11-23T09:29:57.184Z,0.90
2022-11-23T09:32:24.309Z,0.80
2022-11-23T09:34:52.445Z,0.77
2022-11-23T09:37:19.584Z,1.00
2022-11-23T09:39:46.713Z,0.70
2022-11-23T09:42:26.181Z,0.85
2022-11-23T09:45:11.805Z,0.80
2022-11-23T09:47:38.986Z,0.85
2022-11-23T09:50:11.723Z,0.77
2022-11-23T09:52:41.231Z,0.70
2022-11-23T09:55:17.004Z,1.10
2022-11-23T09:57:45.938Z,0.70
2022-11-23T10:02:41.213Z,0.73
2022-11-23T10:05:08.797Z,0.90
2022-11-23T10:07:51.283Z,0.60
2022-11-23T10:10:21.486Z,0.63
2022-11-23T10:13:07.168Z,0.88
2022-11-23T10:15:43.715Z,0.70
2022-11-23T10:18:29.504Z,0.90
2022-11-23T10:21:00.444Z,1.05
2022-11-23T10:23:32.886Z,0.82
2022-11-23T10:26:00.352Z,0.70
2022-11-23T10:28:30.286Z,0.65
2022-11-23T10:31:02.184Z,0.70
2022-11-23T10:33:34.510Z,0.77
2022-11-23T10:36:01.913Z,0.73
2022-11-23T10:38:29.361Z,0.90
2022-11-23T10:41:06.865Z,0.57
2022-11-23T10:43:43.488Z,0.75
2022-11-23T10:46:24.414Z,1.10
2022-11-23T10:48:52.134Z,0.82
2022-11-23T10:51:31.052Z,0.65
2022-11-23T10:54:05.515Z,0.85
2022-11-23T10:56:33.912Z,0.98
2022-11-23T10:59:01.322Z,0.90
2022-11-23T11:01:30.417Z,0.80
2022-11-23T11:04:04.541Z,0.88
2022-11-23T11:06:34.157Z,0.95
2022-11-23T11:09:03.936Z,1.02
2022-11-23T11:11:32.993Z,0.90
2022-11-23T11:14:06.279Z,0.70
2022-11-23T11:16:37.672Z,0.85
2022-11-23T11:19:23.335Z,0.60
2022-11-23T11:21:50.589Z,0.75
2022-11-23T11:24:36.590Z,0.60
2022-11-23T11:27:05.697Z,0.60
2022-11-23T11:29:38.300Z,0.85
2022-11-23T11:32:14.620Z,0.70
2022-11-23T11:34:48.544Z,0.70
2022-11-23T11:37:19.735Z,0.68
2022-11-23T11:39:50.227Z,0.80
2022-11-23T11:42:20.621Z,0.98
2022-11-23T11:44:49.446Z,0.80
2022-11-23T11:47:26.718Z,0.82
2022-11-23T11:49:55.950Z,0.88
2022-11-23T11:52:25.606Z,0.90
2022-11-23T11:54:55.784Z,0.80
2022-11-23T11:57:25.279Z,0.80
2022-11-23T11:59:55.824Z,1.00
2022-11-23T12:02:28.337Z,0.80
2022-11-23T12:04:58.424Z,0.80
2022-11-23T12:07:29.637Z,0.82
2022-11-23T12:10:01.361Z,0.68
2022-11-23T12:12:30.026Z,0.80
2022-11-23T12:14:57.584Z,0.73
2022-11-23T12:17:51.071Z,0.70
2022-11-23T12:23:03.760Z,0.70
2022-11-23T12:25:36.858Z,0.90
2022-11-23T12:28:16.536Z,0.88
2022-11-23T12:30:52.063Z,1.02
2022-11-23T12:33:37.771Z,0.80
2022-11-23T12:36:27.330Z,0.82
2022-11-23T12:39:00.319Z,0.73
2022-11-23T12:41:27.426Z,0.70
2022-11-23T12:43:54.531Z,0.60
2022-11-23T12:46:35.365Z,0.52
2022-11-23T12:49:10.789Z,0.60
2022-11-23T12:51:52.916Z,0.77
2022-11-23T12:54:32.392Z,0.70
2022-11-23T12:57:05.709Z,0.68
2022-11-23T12:59:40.520Z,0.80
2022-11-23T13:02:13.633Z,0.80
2022-11-23T13:04:40.758Z,0.80
2022-11-23T13:10:07.302Z,0.70
2022-11-23T13:12:53.071Z,0.82
2022-11-23T13:15:20.327Z,0.80
2022-11-23T13:17:50.259Z,0.70
2022-11-23T13:20:28.950Z,0.55
2022-11-23T13:22:57.774Z,0.80
2022-11-23T13:25:29.341Z,0.80
2022-11-23T13:27:56.413Z,0.55
2022-11-23T13:30:35.588Z,0.70
2022-11-23T13:33:23.619Z,0.80
2022-11-23T13:36:02.111Z,0.80
2022-11-23T13:38:40.345Z,0.70
2022-11-23T13:41:30.461Z,0.88
2022-11-23T13:44:20.688Z,0.68
2022-11-23T13:46:59.652Z,0.70
2022-11-23T13:49:33.975Z,0.60
2022-11-23T13:52:16.151Z,0.60
2022-11-23T13:54:54.146Z,0.65
2022-11-23T13:57:21.496Z,0.60
2022-11-23T13:59:48.634Z,0.60
2022-11-23T14:02:30.029Z,0.73
2022-11-23T14:05:31.382Z,0.60
2022-11-23T14:08:00.854Z,0.52
2022-11-23T14:10:30.000Z,0.60
2022-11-23T14:13:05.747Z,0.60
2022-11-23T14:15:35.236Z,0.50
2022-11-23T14:18:22.927Z,0.70
2022-11-23T14:21:08.755Z,0.70
2022-11-23T14:23:54.664Z,0.60
2022-11-23T14:26:34.845Z,0.60
2022-11-23T14:29:30.929Z,0.50
2022-11-23T14:32:10.198Z,0.50
2022-11-23T14:34:55.709Z,0.80
2022-11-23T14:37:31.667Z,0.52
2022-11-23T14:40:17.345Z,0.55
2022-11-23T14:42:51.844Z,0.60
2022-11-23T14:45:20.519Z,0.68
2022-11-23T14:47:47.594Z,0.57
2022-11-23T14:50:27.886Z,0.52
2022-11-23T14:52:56.371Z,0.90
2022-11-23T14:55:25.605Z,0.60
2022-11-23T14:57:55.137Z,0.70
2022-11-23T15:00:30.996Z,0.50
2022-11-23T15:03:15.340Z,0.70
2022-11-23T15:05:53.160Z,0.40
2022-11-23T15:08:22.765Z,0.60
2022-11-23T15:10:58.859Z,0.52
2022-11-23T15:13:27.783Z,0.70
2022-11-23T15:15:56.130Z,0.43
2022-11-23T15:18:30.621Z,1.08
2022-11-23T15:21:00.118Z,0.50
2022-11-23T15:23:30.609Z,0.80
2022-11-23T15:25:59.865Z,0.50
2022-11-23T15:28:27.945Z,0.50
2022-11-23T15:30:58.551Z,0.65
2022-11-23T15:33:26.536Z,0.95
2022-11-23T15:35:54.818Z,0.60
2022-11-23T15:38:23.810Z,0.60
2022-11-23T15:40:51.773Z,0.60
2022-11-23T15:43:20.061Z,0.77
2022-11-23T15:45:47.289Z,0.77
2022-11-23T15:48:16.849Z,0.57
2022-11-23T15:50:50.591Z,0.50
2022-11-23T15:53:18.014Z,0.60
2022-11-23T15:55:45.491Z,0.80
2022-11-23T15:58:16.123Z,0.40
2022-11-23T16:00:47.896Z,0.60
2022-11-23T16:03:22.185Z,0.70
2022-11-23T16:06:09.083Z,0.60
2022-11-23T16:08:36.772Z,0.70
2022-11-23T16:11:04.624Z,0.68
2022-11-23T16:13:38.990Z,0.70
2022-11-23T16:16:09.820Z,0.70
2022-11-23T16:18:37.055Z,0.60
2022-11-23T16:21:05.019Z,0.63
2022-11-23T16:23:44.237Z,0.70
2022-11-23T16:26:11.834Z,0.68
2022-11-23T16:28:40.106Z,0.60
2022-11-23T16:31:07.471Z,0.82
2022-11-23T16:33:35.657Z,0.70
2022-11-23T16:36:02.786Z,0.70
2022-11-23T16:38:30.704Z,0.73
2022-11-23T16:40:57.886Z,0.63
2022-11-23T16:43:25.051Z,0.77
2022-11-23T16:45:52.398Z,0.93
2022-11-23T16:48:39.890Z,0.75
2022-11-23T16:53:53.476Z,0.82
2022-11-23T16:56:23.556Z,0.75
2022-11-23T16:58:51.524Z,1.05
2022-11-23T17:01:21.210Z,0.68
2022-11-23T17:03:48.878Z,0.70
2022-11-23T17:06:23.141Z,0.75
2022-11-23T17:08:58.297Z,0.85
2022-11-23T17:11:28.218Z,1.02
2022-11-23T17:13:56.502Z,0.88
2022-11-23T17:16:25.037Z,0.70
2022-11-23T17:18:52.138Z,0.70
2022-11-23T17:21:19.264Z,0.80
2022-11-23T17:23:46.935Z,0.70
2022-11-23T17:26:34.823Z,0.60
2022-11-23T17:29:03.443Z,0.98
2022-11-23T17:31:30.704Z,0.82
2022-11-23T17:34:00.853Z,0.57
2022-11-23T17:36:28.075Z,0.63
2022-11-23T17:38:55.543Z,0.90
2022-11-23T17:41:22.827Z,0.70
2022-11-23T17:43:49.978Z,0.70
2022-11-23T17:46:19.191Z,0.80
2022-11-23T17:48:49.709Z,0.90
2022-11-23T17:51:16.823Z,0.70
2022-11-23T17:53:43.944Z,1.42
2022-11-23T17:56:21.375Z,0.85
2022-11-23T17:58:48.846Z,0.80
2022-11-23T18:01:16.659Z,0.73
2022-11-23T18:03:44.167Z,0.70
2022-11-23T18:06:13.957Z,0.52
2022-11-23T18:08:41.416Z,0.60
2022-11-23T18:11:08.964Z,0.50
2022-11-23T18:13:36.122Z,0.90
2022-11-23T18:16:03.545Z,0.70
2022-11-23T18:18:30.772Z,0.80
2022-11-23T18:20:59.512Z,0.70
2022-11-23T18:23:27.528Z,0.70
2022-11-23T18:26:04.765Z,0.70
2022-11-23T18:28:32.816Z,0.50
2022-11-23T18:30:59.975Z,0.60
2022-11-23T18:33:27.228Z,0.55
2022-11-23T18:35:54.365Z,0.73
2022-11-23T18:38:21.466Z,0.80
2022-11-23T18:40:48.850Z,0.80
2022-11-23T18:43:15.962Z,0.60
2022-11-23T18:45:43.773Z,0.77
2022-11-23T18:48:10.945Z,0.90
2022-11-23T18:50:39.232Z,1.02
2022-11-23T18:53:06.534Z,0.63
2022-11-23T18:55:34.835Z,0.75
2022-11-23T18:58:02.152Z,0.70
2022-11-23T19:00:29.473Z,0.60
2022-11-23T19:02:58.736Z,0.75
2022-11-23T19:05:26.567Z,0.70
2022-11-23T19:07:54.450Z,0.70
2022-11-23T19:10:21.580Z,1.02
2022-11-23T19:12:48.820Z,0.60
2022-11-23T19:15:16.041Z,1.00
2022-11-23T19:17:49.267Z,1.10
2022-11-23T19:20:19.280Z,0.88
2022-11-23T19:22:47.735Z,1.20
2022-11-23T19:25:16.291Z,0.70
2022-11-23T19:27:44.927Z,0.80
2022-11-23T19:30:14.050Z,0.68
2022-11-23T19:32:41.307Z,0.90
2022-11-23T19:35:08.586Z,0.70
2022-11-23T19:37:36.678Z,0.70
2022-11-23T19:40:03.904Z,1.10
2022-11-23T19:42:31.061Z,0.80
2022-11-23T19:44:58.453Z,0.70
2022-11-23T19:47:25.536Z,0.75
2022-11-23T19:49:52.633Z,0.73
2022-11-23T19:52:19.929Z,0.80
2022-11-23T19:54:47.051Z,0.80
2022-11-23T19:57:14.155Z,0.80
2022-11-23T19:59:41.336Z,1.08
2022-11-23T20:02:09.597Z,1.13
2022-11-23T20:04:36.831Z,1.20
2022-11-23T20:07:04.059Z,1.02
2022-11-23T20:09:31.707Z,1.00
2022-11-23T20:11:59.077Z,1.25
2022-11-23T20:14:26.239Z,1.10
2022-11-23T20:16:53.381Z,1.15
2022-11-23T20:19:20.602Z,0.88
2022-11-23T20:21:47.971Z,1.20
2022-11-23T20:24:15.210Z,1.23
2022-11-23T20:26:42.776Z,1.00
2022-11-23T20:29:10.082Z,1.08
2022-11-23T20:31:37.768Z,0.95
2022-11-23T20:34:07.336Z,1.30
2022-11-23T20:36:36.871Z,0.90
2022-11-23T20:39:08.857Z,1.13
2022-11-23T20:41:37.206Z,1.17
2022-11-23T20:44:11.143Z,0.98
2022-11-23T20:47:01.687Z,0.98
2022-11-23T20:49:25.576Z,1.10
2022-11-23T20:51:52.634Z,1.00
2022-11-23T20:54:19.751Z,0.90
2022-11-23T20:56:47.044Z,1.00
2022-11-23T20:59:14.217Z,1.00
2022-11-23T21:01:41.424Z,1.05
2022-11-23T21:04:09.260Z,1.10
2022-11-23T21:06:39.538Z,1.20
2022-11-23T21:09:07.738Z,1.10
2022-11-23T21:11:53.701Z,1.00
2022-11-23T21:14:22.078Z,1.13
2022-11-23T21:16:55.115Z,1.10
2022-11-23T21:19:28.069Z,1.25
2022-11-23T21:21:55.241Z,1.10
2022-11-23T21:24:22.354Z,0.88
2022-11-23T21:26:49.665Z,1.00
2022-11-23T21:29:17.700Z,1.10
2022-11-23T21:31:46.131Z,1.05
2022-11-23T21:34:18.502Z,1.25
2022-11-23T21:36:45.883Z,1.02
2022-11-23T21:39:13.906Z,1.10
2022-11-23T21:41:41.325Z,1.33
2022-11-23T21:44:09.417Z,1.13
2022-11-23T21:46:37.661Z,1.40
2022-11-23T21:49:06.414Z,1.30
2022-11-23T21:51:34.037Z,1.23
2022-11-23T21:54:01.988Z,1.30
2022-11-23T21:56:29.721Z,1.48
2022-11-23T21:58:57.056Z,1.10
2022-11-23T22:01:25.398Z,1.10
2022-11-23T22:03:53.779Z,1.20
2022-11-23T22:06:21.281Z,1.35
2022-11-23T22:08:49.685Z,1.33
2022-11-23T22:11:19.627Z,1.10
2022-11-23T22:13:46.785Z,1.10
2022-11-23T22:16:15.079Z,1.13
2022-11-23T22:18:42.305Z,1.00
2022-11-23T22:21:09.479Z,1.20
2022-11-23T22:23:36.734Z,1.10
2022-11-23T22:26:04.694Z,1.40
2022-11-23T22:28:42.308Z,1.20
2022-11-23T22:31:10.380Z,1.27
2022-11-23T22:33:38.046Z,1.27
2022-11-23T22:36:06.388Z,1.02
2022-11-23T22:38:33.669Z,1.05
2022-11-23T22:41:01.378Z,1.10
2022-11-23T22:43:29.980Z,1.10
2022-11-23T22:46:05.872Z,1.00
2022-11-23T22:48:33.289Z,0.98
2022-11-23T22:51:01.688Z,1.38
2022-11-23T22:53:32.444Z,1.40
2022-11-23T22:56:03.446Z,1.02
2022-11-23T22:58:31.073Z,1.00
2022-11-23T23:00:58.680Z,1.45
2022-11-23T23:03:25.999Z,1.10
2022-11-23T23:05:57.250Z,1.38
2022-11-23T23:08:25.307Z,1.27
2022-11-23T23:10:52.900Z,1.60
2022-11-23T23:13:20.777Z,1.17
2022-11-23T23:15:47.996Z,1.15
2022-11-23T23:18:16.245Z,1.25
2022-11-23T23:20:43.886Z,1.38
2022-11-23T23:23:10.971Z,0.75
2022-11-23T23:25:38.063Z,1.15
2022-11-23T23:28:05.314Z,1.30
2022-11-23T23:30:32.462Z,1.10
2022-11-23T23:32:59.988Z,1.10
2022-11-23T23:35:27.102Z,1.23
2022-11-23T23:37:55.241Z,1.30
2022-11-23T23:40:22.524Z,1.15
2022-11-23T23:42:49.641Z,1.00
2022-11-23T23:45:16.850Z,1.05
2022-11-23T23:47:43.952Z,1.08
2022-11-23T23:50:11.021Z,1.00
2022-11-23T23:52:38.422Z,1.08
2022-11-23T23:55:05.814Z,1.20
2022-11-23T23:57:33.572Z,1.10
